Time;durP1;ratioP1;P1;durP2;ratioP2;P2;SDS_P1;SDS_P2;PMS_P1;PMS_P2;Temp;Humidity;BMP_temperature;BMP_pressure;BME280_temperature;BME280_humidity;BME280_pressure;Samples;Min_cycle;Max_cycle;Signal;HPM_P1;HPM_P2
2024/01/23 00:01:16;;;;;;;;;;;;;;;;;;2101773;28;19919;-79
2024/01/23 00:02:37;;;;;;;;;;;;;;;;;;2101918;28;20346;-80
2024/01/23 00:03:58;;;;;;;;;;;;;;;;;;2104190;28;19920;-79
2024/01/23 00:05:18;;;;;;;;;;;;;;;;;;2090034;28;19935;-78
2024/01/23 00:06:39;;;;;;;;;;;;;;;;;;2089232;28;19916;-80
2024/01/23 00:08:00;;;;;;;;;;;;;;;;;;2100291;28;19917;-78
2024/01/23 00:09:20;;;;;;;;;;;;;;;;;;2095503;28;19913;-79
2024/01/23 00:10:41;;;;;;;;;;;;;;;;;;2090371;28;20570;-78
2024/01/23 00:12:02;;;;;;;;;;;;;;;;;;2100843;28;19912;-80
2024/01/23 00:13:23;;;;;;;;;;;;;;;;;;2089168;28;20389;-79
2024/01/23 00:14:43;;;;;;;;;;;;;;;;;;2102198;28;19920;-78
2024/01/23 00:16:04;;;;;;;;;;;;;;;;;;2104326;28;20268;-78
2024/01/23 00:17:25;;;;;;;;;;;;;;;;;;2096945;28;19909;-79
2024/01/23 00:18:45;;;;;;;;;;;;;;;;;;2084871;28;19951;-79
2024/01/23 00:20:06;;;;;;;;;;;;;;;;;;2089240;28;19924;-78
2024/01/23 00:21:27;;;;;;;;;;;;;;;;;;2099772;28;19996;-78
2024/01/23 00:22:48;;;;;;;;;;;;;;;;;;2099873;28;19920;-78
2024/01/23 00:24:09;;;;;;;;;;;;;;;;;;2091284;28;19931;-78
2024/01/23 00:25:30;;;;;;;;;;;;;;;;;;2092168;28;19923;-79
2024/01/23 00:26:51;;;;;;;;;;;;;;;;;;2096953;28;19909;-79
2024/01/23 00:28:11;;;;;;;;;;;;;;;;;;2099843;28;19916;-78
2024/01/23 00:29:34;;;;;;;;;;;;;;;;;;2094018;28;19964;-79
2024/01/23 00:30:55;;;;;;;;;;;;;;;;;;2102757;28;19912;-78
2024/01/23 00:32:15;;;;;;;;;;;;;;;;;;2103877;28;19916;-79
2024/01/23 00:33:36;;;;;;;;;;;;;;;;;;2100198;28;19912;-79
2024/01/23 00:34:58;;;;;;;;;;;;;;;;;;2091307;28;19986;-79
2024/01/23 00:36:18;;;;;;;;;;;;;;;;;;2087808;28;19913;-78
2024/01/23 00:37:39;;;;;;;;;;;;;;;;;;2092675;28;19940;-79
2024/01/23 00:39:00;;;;;;;;;;;;;;;;;;2091617;28;20462;-79
2024/01/23 00:40:20;;;;;;;;;;;;;;;;;;2098762;28;19928;-79
2024/01/23 00:41:41;;;;;;;;;;;;;;;;;;2092696;28;19913;-79
2024/01/23 00:43:02;;;;;;;;;;;;;;;;;;2099673;28;19912;-78
2024/01/23 00:44:22;;;;;;;;;;;;;;;;;;2096402;28;19909;-78
2024/01/23 00:45:43;;;;;;;;;;;;;;;;;;2103108;28;19923;-79
2024/01/23 00:47:05;;;;;;;;;;;;;;;;;;2091326;28;19912;-78
2024/01/23 00:48:25;;;;;;;;;;;;;;;;;;2096848;28;20253;-79
2024/01/23 00:49:46;;;;;;;;;;;;;;;;;;2091986;28;19908;-79
2024/01/23 00:51:07;;;;;;;;;;;;;;;;;;2091819;28;20368;-79
2024/01/23 00:52:28;;;;;;;;;;;;;;;;;;2086209;28;19909;-78
2024/01/23 00:53:48;;;;;;;;;;;;;;;;;;2102323;28;19912;-79
2024/01/23 00:55:09;;;;;;;;;;;;;;;;;;2093976;28;19916;-79
2024/01/23 00:56:30;;;;;;;;;;;;;;;;;;2093192;28;19920;-80
2024/01/23 00:57:50;;;;;;;;;;;;;;;;;;2096148;28;19919;-79
2024/01/23 00:59:11;;;;;;;;;;;;;;;;;;2094146;28;19916;-78
2024/01/23 01:00:32;;;;;;;;;;;;;;;;;;2099830;28;19920;-79
2024/01/23 01:01:52;;;;;;;;;;;;;;;;;;2103440;28;20235;-79
2024/01/23 01:03:13;;;;;;;;;;;;;;;;;;2098473;28;19920;-78
2024/01/23 01:04:35;;;;;;;;;;;;;;;;;;2097578;28;19916;-78
2024/01/23 01:05:55;;;;;;;;;;;;;;;;;;2087001;28;19935;-78
2024/01/23 01:07:16;;;;;;;;;;;;;;;;;;2097488;28;20273;-78
2024/01/23 01:08:37;;;;;;;;;;;;;;;;;;2093226;28;20006;-79
2024/01/23 01:09:58;;;;;;;;;;;;;;;;;;2086510;28;19932;-79
2024/01/23 01:11:18;;;;;;;;;;;;;;;;;;2091844;28;19912;-80
2024/01/23 01:12:39;;;;;;;;;;;;;;;;;;2097818;28;19978;-80
2024/01/23 01:14:00;;;;;;;;;;;;;;;;;;2096379;28;20045;-79
2024/01/23 01:15:20;;;;;;;;;;;;;;;;;;2093274;28;19982;-79
2024/01/23 01:16:41;;;;;;;;;;;;;;;;;;2096386;28;19966;-80
2024/01/23 01:18:02;;;;;;;;;;;;;;;;;;2097865;28;19916;-79
2024/01/23 01:19:23;;;;;;;;;;;;;;;;;;2096430;28;19913;-79
2024/01/23 01:20:44;;;;;;;;;;;;;;;;;;2092712;28;19920;-79
2024/01/23 01:22:05;;;;;;;;;;;;;;;;;;2091505;28;19990;-78
2024/01/23 01:23:26;;;;;;;;;;;;;;;;;;2089322;28;19913;-80
2024/01/23 01:24:47;;;;;;;;;;;;;;;;;;2090192;28;19913;-80
2024/01/23 01:26:07;;;;;;;;;;;;;;;;;;2090350;28;19920;-77
2024/01/23 01:27:28;;;;;;;;;;;;;;;;;;2093862;28;19912;-79
2024/01/23 01:28:49;;;;;;;;;;;;;;;;;;2090627;28;19939;-79
2024/01/23 01:30:10;;;;;;;;;;;;;;;;;;2096520;28;19920;-78
2024/01/23 01:31:30;;;;;;;;;;;;;;;;;;2093600;28;19935;-79
2024/01/23 01:32:51;;;;;;;;;;;;;;;;;;2092468;28;20516;-79
2024/01/23 01:34:12;;;;;;;;;;;;;;;;;;2096368;28;19912;-79
2024/01/23 01:35:32;;;;;;;;;;;;;;;;;;2094734;28;19921;-81
2024/01/23 01:36:53;;;;;;;;;;;;;;;;;;2090188;28;19920;-80
2024/01/23 01:38:14;;;;;;;;;;;;;;;;;;2094876;28;20441;-79
2024/01/23 01:39:34;;;;;;;;;;;;;;;;;;2092580;28;19919;-79
2024/01/23 01:40:57;;;;;;;;;;;;;;;;;;2096987;28;19966;-79
2024/01/23 01:42:17;;;;;;;;;;;;;;;;;;2096765;28;19913;-79
2024/01/23 01:43:38;;;;;;;;;;;;;;;;;;2097345;28;19917;-80
2024/01/23 01:44:59;;;;;;;;;;;;;;;;;;2092744;28;20330;-81
2024/01/23 01:46:19;;;;;;;;;;;;;;;;;;2093267;28;19932;-79
2024/01/23 01:47:41;;;;;;;;;;;;;;;;;;2094469;28;19916;-79
2024/01/23 01:49:02;;;;;;;;;;;;;;;;;;2094430;28;20394;-79
2024/01/23 01:50:22;;;;;;;;;;;;;;;;;;2097490;28;19962;-79
2024/01/23 01:51:43;;;;;;;;;;;;;;;;;;2089511;28;19958;-79
2024/01/23 01:53:04;;;;;;;;;;;;;;;;;;2090296;28;20110;-80
2024/01/23 01:54:25;;;;;;;;;;;;;;;;;;2095656;28;20387;-80
2024/01/23 01:55:45;;;;;;;;;;;;;;;;;;2097586;28;19909;-79
2024/01/23 01:57:06;;;;;;;;;;;;;;;;;;2092474;28;20272;-78
2024/01/23 01:58:27;;;;;;;;;;;;;;;;;;2092200;28;20888;-79
2024/01/23 01:59:48;;;;;;;;;;;;;;;;;;2092405;28;19913;-81
2024/01/23 02:01:10;;;;;;;;;;;;;;;;;;2091890;28;19924;-80
2024/01/23 02:02:30;;;;;;;;;;;;;;;;;;2094884;28;19913;-80
2024/01/23 02:03:51;;;;;;;;;;;;;;;;;;2095992;28;19924;-80
2024/01/23 02:05:12;;;;;;;;;;;;;;;;;;2096600;28;19912;-80
2024/01/23 02:06:32;;;;;;;;;;;;;;;;;;2092713;28;19921;-79
2024/01/23 02:07:53;;;;;;;;;;;;;;;;;;2088833;28;19916;-79
2024/01/23 02:09:14;;;;;;;;;;;;;;;;;;2098195;28;19970;-79
2024/01/23 02:10:34;;;;;;;;;;;;;;;;;;2100685;28;19924;-79
2024/01/23 02:11:55;;;;;;;;;;;;;;;;;;2104533;28;19933;-79
2024/01/23 02:13:16;;;;;;;;;;;;;;;;;;2090983;28;20530;-79
2024/01/23 02:14:37;;;;;;;;;;;;;;;;;;2090165;28;19912;-79
2024/01/23 02:15:57;;;;;;;;;;;;;;;;;;2100242;28;19912;-79
2024/01/23 02:17:18;;;;;;;;;;;;;;;;;;2094575;28;20175;-80
2024/01/23 02:18:39;;;;;;;;;;;;;;;;;;2092280;28;20128;-79
2024/01/23 02:19:59;;;;;;;;;;;;;;;;;;2102274;28;20303;-79
2024/01/23 02:21:20;;;;;;;;;;;;;;;;;;2090752;28;19931;-79
2024/01/23 02:22:41;;;;;;;;;;;;;;;;;;2096546;28;19912;-80
2024/01/23 02:24:01;;;;;;;;;;;;;;;;;;2093246;28;20311;-78
2024/01/23 02:25:22;;;;;;;;;;;;;;;;;;2100871;28;19912;-78
2024/01/23 02:26:43;;;;;;;;;;;;;;;;;;2092475;28;19916;-81
2024/01/23 02:28:03;;;;;;;;;;;;;;;;;;2102277;28;19912;-80
2024/01/23 02:29:24;;;;;;;;;;;;;;;;;;2096866;28;19942;-79
2024/01/23 02:30:45;;;;;;;;;;;;;;;;;;2088665;28;19912;-79
2024/01/23 02:32:05;;;;;;;;;;;;;;;;;;2088722;28;19920;-78
2024/01/23 02:33:26;;;;;;;;;;;;;;;;;;2090067;28;19919;-79
2024/01/23 02:34:47;;;;;;;;;;;;;;;;;;2097563;28;19908;-79
2024/01/23 02:36:08;;;;;;;;;;;;;;;;;;2096874;28;19913;-78
2024/01/23 02:37:29;;;;;;;;;;;;;;;;;;2095994;28;19913;-79
2024/01/23 02:38:50;;;;;;;;;;;;;;;;;;2090620;28;19979;-79
2024/01/23 02:40:10;;;;;;;;;;;;;;;;;;2093822;28;20392;-79
2024/01/23 02:41:31;;;;;;;;;;;;;;;;;;2093151;28;19939;-80
2024/01/23 02:42:52;;;;;;;;;;;;;;;;;;2094973;28;19912;-78
2024/01/23 02:44:12;;;;;;;;;;;;;;;;;;2096854;28;19921;-79
2024/01/23 02:45:33;;;;;;;;;;;;;;;;;;2094920;28;19912;-80
2024/01/23 02:46:54;;;;;;;;;;;;;;;;;;2098168;28;19912;-80
2024/01/23 02:48:14;;;;;;;;;;;;;;;;;;2091953;28;19913;-79
2024/01/23 02:49:35;;;;;;;;;;;;;;;;;;2093796;28;19912;-79
2024/01/23 02:50:56;;;;;;;;;;;;;;;;;;2101904;28;19921;-79
2024/01/23 02:52:16;;;;;;;;;;;;;;;;;;2090522;28;20430;-79
2024/01/23 02:53:37;;;;;;;;;;;;;;;;;;2086747;28;19917;-79
2024/01/23 02:54:58;;;;;;;;;;;;;;;;;;2098520;28;19912;-80
2024/01/23 02:56:19;;;;;;;;;;;;;;;;;;2100752;28;19920;-77
2024/01/23 02:57:39;;;;;;;;;;;;;;;;;;2103254;28;19978;-81
2024/01/23 02:59:00;;;;;;;;;;;;;;;;;;2090374;28;20384;-78
2024/01/23 03:00:21;;;;;;;;;;;;;;;;;;2100944;28;20033;-79
2024/01/23 03:01:42;;;;;;;;;;;;;;;;;;2093479;28;20499;-80
2024/01/23 03:03:03;;;;;;;;;;;;;;;;;;2099053;28;20359;-79
2024/01/23 03:04:23;;;;;;;;;;;;;;;;;;2091967;28;19912;-79
2024/01/23 03:05:44;;;;;;;;;;;;;;;;;;2091199;28;19913;-79
2024/01/23 03:07:05;;;;;;;;;;;;;;;;;;2089163;28;19943;-79
2024/01/23 03:08:25;;;;;;;;;;;;;;;;;;2088821;28;20237;-79
2024/01/23 03:09:46;;;;;;;;;;;;;;;;;;2092012;28;19912;-76
2024/01/23 03:11:07;;;;;;;;;;;;;;;;;;2101157;28;20136;-80
2024/01/23 03:12:28;;;;;;;;;;;;;;;;;;2093455;28;20304;-78
2024/01/23 03:13:48;;;;;;;;;;;;;;;;;;2099535;28;19912;-79
2024/01/23 03:15:09;;;;;;;;;;;;;;;;;;2093355;28;19912;-78
2024/01/23 03:16:30;;;;;;;;;;;;;;;;;;2093448;28;19954;-79
2024/01/23 03:17:50;;;;;;;;;;;;;;;;;;2087165;28;19935;-79
2024/01/23 03:19:11;;;;;;;;;;;;;;;;;;2098354;28;20329;-79
2024/01/23 03:20:33;;;;;;;;;;;;;;;;;;2102197;28;19913;-77
2024/01/23 03:21:53;;;;;;;;;;;;;;;;;;2092891;28;19912;-79
2024/01/23 03:23:14;;;;;;;;;;;;;;;;;;2094126;28;20445;-78
2024/01/23 03:24:35;;;;;;;;;;;;;;;;;;2092398;28;19919;-79
2024/01/23 03:25:55;;;;;;;;;;;;;;;;;;2085894;28;19916;-80
2024/01/23 03:27:16;;;;;;;;;;;;;;;;;;2091454;28;19912;-79
2024/01/23 03:28:37;;;;;;;;;;;;;;;;;;2097294;28;19915;-79
2024/01/23 03:29:57;;;;;;;;;;;;;;;;;;2104394;28;19932;-80
2024/01/23 03:31:19;;;;;;;;;;;;;;;;;;2100724;28;19931;-81
2024/01/23 03:32:39;;;;;;;;;;;;;;;;;;2089947;28;20278;-79
2024/01/23 03:34:00;;;;;;;;;;;;;;;;;;2089948;28;19978;-79
2024/01/23 03:35:21;;;;;;;;;;;;;;;;;;2100655;28;19966;-80
2024/01/23 03:36:41;;;;;;;;;;;;;;;;;;2104024;28;19919;-80
2024/01/23 03:38:04;;;;;;;;;;;;;;;;;;2094527;28;20310;-79
2024/01/23 03:39:25;;;;;;;;;;;;;;;;;;2092555;28;19938;-80
2024/01/23 03:40:46;;;;;;;;;;;;;;;;;;2091896;28;19919;-80
2024/01/23 03:42:06;;;;;;;;;;;;;;;;;;2100794;28;20276;-80
2024/01/23 03:43:27;;;;;;;;;;;;;;;;;;2092333;28;19912;-79
2024/01/23 03:44:48;;;;;;;;;;;;;;;;;;2090755;28;19915;-79
2024/01/23 03:46:08;;;;;;;;;;;;;;;;;;2092983;28;19913;-80
2024/01/23 03:47:29;;;;;;;;;;;;;;;;;;2101630;28;20356;-81
2024/01/23 03:48:50;;;;;;;;;;;;;;;;;;2093581;28;19917;-80
2024/01/23 03:50:11;;;;;;;;;;;;;;;;;;2099404;28;19920;-80
2024/01/23 03:51:32;;;;;;;;;;;;;;;;;;2104226;28;19916;-79
2024/01/23 03:52:53;;;;;;;;;;;;;;;;;;2096528;28;19939;-79
2024/01/23 03:54:13;;;;;;;;;;;;;;;;;;2093034;28;20442;-80
2024/01/23 03:55:34;;;;;;;;;;;;;;;;;;2085193;28;20367;-80
2024/01/23 03:56:55;;;;;;;;;;;;;;;;;;2098051;28;19908;-80
2024/01/23 03:58:15;;;;;;;;;;;;;;;;;;2095369;28;19912;-80
2024/01/23 03:59:37;;;;;;;;;;;;;;;;;;2097562;28;19916;-80
2024/01/23 04:00:59;;;;;;;;;;;;;;;;;;2095597;28;19924;-79
2024/01/23 04:02:25;;;;;;;;;;;;;;;;;;2093664;28;19912;-80
2024/01/23 04:03:45;;;;;;;;;;;;;;;;;;2088534;28;19909;-80
2024/01/23 04:05:07;;;;;;;;;;;;;;;;;;2096197;28;19991;-80
2024/01/23 04:06:27;;;;;;;;;;;;;;;;;;2097452;28;19919;-79
2024/01/23 04:07:48;;;;;;;;;;;;;;;;;;2102964;28;20387;-81
2024/01/23 04:09:09;;;;;;;;;;;;;;;;;;2104756;28;20165;-78
2024/01/23 04:10:30;;;;;;;;;;;;;;;;;;2105329;28;19927;-78
2024/01/23 04:11:50;;;;;;;;;;;;;;;;;;2104729;28;20004;-79
2024/01/23 04:13:11;;;;;;;;;;;;;;;;;;2095208;28;19909;-78
2024/01/23 04:14:32;;;;;;;;;;;;;;;;;;2092469;28;20353;-79
2024/01/23 04:15:52;;;;;;;;;;;;;;;;;;2097803;28;19909;-78
2024/01/23 04:17:13;;;;;;;;;;;;;;;;;;2098643;28;19969;-78
2024/01/23 04:18:34;;;;;;;;;;;;;;;;;;2089770;28;20465;-78
2024/01/23 04:19:55;;;;;;;;;;;;;;;;;;2093942;28;19912;-79
2024/01/23 04:21:19;;;;;;;;;;;;;;;;;;2097402;28;19997;-79
2024/01/23 04:22:39;;;;;;;;;;;;;;;;;;2092394;28;19935;-79
2024/01/23 04:24:01;;;;;;;;;;;;;;;;;;2086295;28;20296;-78
2024/01/23 04:25:22;;;;;;;;;;;;;;;;;;2084610;28;19913;-79
2024/01/23 04:26:43;;;;;;;;;;;;;;;;;;2092810;28;19915;-79
2024/01/23 04:28:03;;;;;;;;;;;;;;;;;;2102012;28;19937;-80
2024/01/23 04:29:24;;;;;;;;;;;;;;;;;;2101299;28;19924;-79
2024/01/23 04:30:45;;;;;;;;;;;;;;;;;;2095209;28;19925;-78
2024/01/23 04:32:05;;;;;;;;;;;;;;;;;;2090448;28;19912;-80
2024/01/23 04:33:26;;;;;;;;;;;;;;;;;;2100175;28;19912;-80
2024/01/23 04:34:47;;;;;;;;;;;;;;;;;;2097596;28;20280;-80
2024/01/23 04:36:08;;;;;;;;;;;;;;;;;;2104150;28;19908;-79
2024/01/23 04:37:29;;;;;;;;;;;;;;;;;;2103449;28;19912;-79
2024/01/23 04:38:49;;;;;;;;;;;;;;;;;;2100407;28;19916;-79
2024/01/23 04:40:10;;;;;;;;;;;;;;;;;;2106175;28;19919;-79
2024/01/23 04:41:31;;;;;;;;;;;;;;;;;;2088173;28;19925;-80
2024/01/23 04:42:51;;;;;;;;;;;;;;;;;;2095306;28;20340;-78
2024/01/23 04:44:12;;;;;;;;;;;;;;;;;;2094885;28;19916;-78
2024/01/23 04:45:33;;;;;;;;;;;;;;;;;;2092559;28;19913;-79
2024/01/23 04:46:53;;;;;;;;;;;;;;;;;;2099400;28;20268;-79
2024/01/23 04:48:14;;;;;;;;;;;;;;;;;;2095441;28;19909;-79
2024/01/23 04:49:35;;;;;;;;;;;;;;;;;;2096940;28;19917;-79
2024/01/23 04:50:55;;;;;;;;;;;;;;;;;;2093969;28;19909;-79
2024/01/23 04:52:16;;;;;;;;;;;;;;;;;;2092086;28;19962;-79
2024/01/23 04:53:37;;;;;;;;;;;;;;;;;;2102230;28;19950;-79
2024/01/23 04:54:57;;;;;;;;;;;;;;;;;;2097907;28;19908;-80
2024/01/23 04:56:18;;;;;;;;;;;;;;;;;;2101969;28;19961;-79
2024/01/23 04:57:39;;;;;;;;;;;;;;;;;;2100790;28;19908;-80
2024/01/23 04:58:59;;;;;;;;;;;;;;;;;;2105923;28;19920;-79
2024/01/23 05:00:20;;;;;;;;;;;;;;;;;;2092859;28;19942;-79
2024/01/23 05:01:41;;;;;;;;;;;;;;;;;;2095828;28;19986;-80
2024/01/23 05:03:02;;;;;;;;;;;;;;;;;;2097917;28;19913;-80
2024/01/23 05:04:22;;;;;;;;;;;;;;;;;;2102447;28;19912;-79
2024/01/23 05:05:43;;;;;;;;;;;;;;;;;;2101558;28;20009;-80
2024/01/23 05:07:04;;;;;;;;;;;;;;;;;;2093611;28;19917;-79
2024/01/23 05:08:24;;;;;;;;;;;;;;;;;;2103619;28;20287;-79
2024/01/23 05:09:45;;;;;;;;;;;;;;;;;;2105512;28;19911;-79
2024/01/23 05:11:06;;;;;;;;;;;;;;;;;;2091469;28;20015;-79
2024/01/23 05:12:26;;;;;;;;;;;;;;;;;;2094031;28;19927;-80
2024/01/23 05:13:47;;;;;;;;;;;;;;;;;;2086003;28;19913;-79
2024/01/23 05:15:08;;;;;;;;;;;;;;;;;;2103994;28;19919;-80
2024/01/23 05:16:29;;;;;;;;;;;;;;;;;;2096051;28;19958;-79
2024/01/23 05:17:49;;;;;;;;;;;;;;;;;;2089813;28;19921;-80
2024/01/23 05:19:10;;;;;;;;;;;;;;;;;;2094704;28;19912;-80
2024/01/23 05:20:31;;;;;;;;;;;;;;;;;;2090042;28;19924;-79
2024/01/23 05:21:51;;;;;;;;;;;;;;;;;;2101446;28;19920;-79
2024/01/23 05:23:12;;;;;;;;;;;;;;;;;;2098967;28;19986;-79
2024/01/23 05:24:33;;;;;;;;;;;;;;;;;;2092426;28;20024;-80
2024/01/23 05:25:54;;;;;;;;;;;;;;;;;;2091285;28;19909;-79
2024/01/23 05:27:14;;;;;;;;;;;;;;;;;;2101252;28;19912;-79
2024/01/23 05:28:35;;;;;;;;;;;;;;;;;;2097310;28;20261;-80
2024/01/23 05:29:56;;;;;;;;;;;;;;;;;;2093334;28;19920;-80
2024/01/23 05:31:16;;;;;;;;;;;;;;;;;;2102218;28;19919;-80
2024/01/23 05:32:38;;;;;;;;;;;;;;;;;;2103472;28;20364;-79
2024/01/23 05:33:58;;;;;;;;;;;;;;;;;;2102145;28;19920;-80
2024/01/23 05:35:19;;;;;;;;;;;;;;;;;;2099988;28;19911;-80
2024/01/23 05:36:40;;;;;;;;;;;;;;;;;;2093319;28;19959;-80
2024/01/23 05:38:01;;;;;;;;;;;;;;;;;;2088190;28;19975;-80
2024/01/23 05:39:21;;;;;;;;;;;;;;;;;;2100764;28;19912;-80
2024/01/23 05:40:42;;;;;;;;;;;;;;;;;;2102744;28;19925;-81
2024/01/23 05:42:03;;;;;;;;;;;;;;;;;;2094482;28;19921;-80
2024/01/23 05:43:23;;;;;;;;;;;;;;;;;;2104026;28;19912;-80
2024/01/23 05:44:44;;;;;;;;;;;;;;;;;;2093569;28;19908;-80
2024/01/23 05:46:05;;;;;;;;;;;;;;;;;;2090035;28;19943;-80
2024/01/23 05:47:26;;;;;;;;;;;;;;;;;;2096935;28;20259;-80
2024/01/23 05:48:46;;;;;;;;;;;;;;;;;;2104658;28;19922;-80
2024/01/23 05:50:07;;;;;;;;;;;;;;;;;;2096047;28;19909;-80
2024/01/23 05:51:28;;;;;;;;;;;;;;;;;;2102789;28;19924;-80
2024/01/23 05:52:48;;;;;;;;;;;;;;;;;;2095027;28;19913;-80
2024/01/23 05:54:09;;;;;;;;;;;;;;;;;;2103831;28;20321;-79
2024/01/23 05:55:30;;;;;;;;;;;;;;;;;;2100989;28;19957;-80
2024/01/23 05:56:50;;;;;;;;;;;;;;;;;;2101725;28;19916;-79
2024/01/23 05:58:11;;;;;;;;;;;;;;;;;;2095235;28;20018;-79
2024/01/23 05:59:32;;;;;;;;;;;;;;;;;;2093540;28;19912;-80
2024/01/23 06:00:52;;;;;;;;;;;;;;;;;;2102332;28;19920;-80
2024/01/23 06:02:13;;;;;;;;;;;;;;;;;;2103548;28;19998;-80
2024/01/23 06:03:34;;;;;;;;;;;;;;;;;;2098198;28;19962;-79
2024/01/23 06:04:54;;;;;;;;;;;;;;;;;;2095320;28;19913;-80
2024/01/23 06:06:18;;;;;;;;;;;;;;;;;;2095484;28;19909;-79
2024/01/23 06:07:42;;;;;;;;;;;;;;;;;;2098927;28;20349;-79
2024/01/23 06:09:03;;;;;;;;;;;;;;;;;;2102246;28;20316;-80
2024/01/23 06:10:23;;;;;;;;;;;;;;;;;;2096398;28;19920;-76
2024/01/23 06:11:44;;;;;;;;;;;;;;;;;;2101528;28;19923;-80
2024/01/23 06:13:05;;;;;;;;;;;;;;;;;;2104364;28;20264;-86
2024/01/23 06:14:26;;;;;;;;;;;;;;;;;;2104351;28;19938;-86
2024/01/23 06:15:46;;;;;;;;;;;;;;;;;;2105830;28;19919;-84
2024/01/23 06:17:07;;;;;;;;;;;;;;;;;;2098458;28;20194;-87
2024/01/23 06:18:30;;;;;;;;;;;;;;;;;;2102506;28;19943;-85
2024/01/23 06:19:50;;;;;;;;;;;;;;;;;;2104185;28;19924;-86
2024/01/23 06:21:11;;;;;;;;;;;;;;;;;;2093050;28;19920;-84
2024/01/23 06:22:32;;;;;;;;;;;;;;;;;;2101176;28;19912;-85
2024/01/23 06:23:53;;;;;;;;;;;;;;;;;;2103931;28;19912;-88
2024/01/23 06:25:16;;;;;;;;;;;;;;;;;;2099742;28;19920;-86
2024/01/23 06:26:37;;;;;;;;;;;;;;;;;;2097841;28;19912;-86
2024/01/23 06:27:57;;;;;;;;;;;;;;;;;;2105245;28;19923;-86
2024/01/23 06:29:18;;;;;;;;;;;;;;;;;;2097401;28;19923;-85
2024/01/23 06:30:39;;;;;;;;;;;;;;;;;;2100467;28;20348;-88
2024/01/23 06:31:59;;;;;;;;;;;;;;;;;;2098790;28;19943;-88
2024/01/23 06:33:20;;;;;;;;;;;;;;;;;;2107073;28;19923;-85
2024/01/23 06:34:41;;;;;;;;;;;;;;;;;;2097151;28;19912;-88
2024/01/23 06:36:01;;;;;;;;;;;;;;;;;;2096227;28;19913;-87
2024/01/23 06:37:22;;;;;;;;;;;;;;;;;;2097073;28;19913;-84
2024/01/23 06:38:43;;;;;;;;;;;;;;;;;;2095138;28;19919;-84
2024/01/23 06:40:04;;;;;;;;;;;;;;;;;;2093763;28;19912;-85
2024/01/23 06:41:25;;;;;;;;;;;;;;;;;;2100066;28;19950;-86
2024/01/23 06:42:46;;;;;;;;;;;;;;;;;;2093464;28;20297;-79
2024/01/23 06:44:06;;;;;;;;;;;;;;;;;;2101240;28;19919;-85
2024/01/23 06:45:27;;;;;;;;;;;;;;;;;;2094376;28;20236;-86
2024/01/23 06:46:48;;;;;;;;;;;;;;;;;;2103393;28;19912;-85
2024/01/23 06:48:08;;;;;;;;;;;;;;;;;;2107255;28;20356;-83
2024/01/23 06:49:29;;;;;;;;;;;;;;;;;;2097017;28;19936;-84
2024/01/23 06:50:50;;;;;;;;;;;;;;;;;;2104001;28;19912;-85
2024/01/23 06:52:10;;;;;;;;;;;;;;;;;;2104947;28;19924;-83
2024/01/23 06:53:31;;;;;;;;;;;;;;;;;;2091567;28;19917;-80
2024/01/23 06:54:52;;;;;;;;;;;;;;;;;;2093274;28;20303;-85
2024/01/23 06:56:12;;;;;;;;;;;;;;;;;;2098860;28;19908;-84
2024/01/23 06:57:33;;;;;;;;;;;;;;;;;;2089033;28;19959;-85
2024/01/23 06:58:54;;;;;;;;;;;;;;;;;;2093061;28;19981;-82
2024/01/23 07:00:14;;;;;;;;;;;;;;;;;;2086554;28;19913;-82
2024/01/23 07:01:35;;;;;;;;;;;;;;;;;;2097191;28;20041;-81
2024/01/23 07:02:56;;;;;;;;;;;;;;;;;;2101870;28;19912;-83
2024/01/23 07:04:17;;;;;;;;;;;;;;;;;;2104599;28;20325;-83
2024/01/23 07:05:37;;;;;;;;;;;;;;;;;;2102678;28;19912;-84
2024/01/23 07:06:58;;;;;;;;;;;;;;;;;;2105770;28;19931;-81
2024/01/23 07:08:19;;;;;;;;;;;;;;;;;;2105790;28;19961;-83
2024/01/23 07:09:40;;;;;;;;;;;;;;;;;;2096605;28;19916;-84
2024/01/23 07:11:00;;;;;;;;;;;;;;;;;;2094780;28;19924;-82
2024/01/23 07:12:21;;;;;;;;;;;;;;;;;;2093816;28;19947;-84
2024/01/23 07:13:42;;;;;;;;;;;;;;;;;;2101991;28;19912;-84
2024/01/23 07:15:03;;;;;;;;;;;;;;;;;;2094918;28;20395;-84
2024/01/23 07:16:23;;;;;;;;;;;;;;;;;;2099380;28;19919;-81
2024/01/23 07:17:44;;;;;;;;;;;;;;;;;;2095232;28;20284;-82
2024/01/23 07:19:05;;;;;;;;;;;;;;;;;;2093062;28;19966;-83
2024/01/23 07:20:25;;;;;;;;;;;;;;;;;;2100808;28;19912;-83
2024/01/23 07:21:46;;;;;;;;;;;;;;;;;;2102299;28;19920;-82
2024/01/23 07:23:07;;;;;;;;;;;;;;;;;;2095615;28;20395;-85
2024/01/23 07:24:27;;;;;;;;;;;;;;;;;;2092343;28;19912;-84
2024/01/23 07:25:48;;;;;;;;;;;;;;;;;;2100488;28;20247;-82
2024/01/23 07:27:09;;;;;;;;;;;;;;;;;;2104926;28;19908;-84
2024/01/23 07:28:29;;;;;;;;;;;;;;;;;;2095043;28;19943;-86
2024/01/23 07:29:50;;;;;;;;;;;;;;;;;;2094441;28;19916;-86
2024/01/23 07:31:12;;;;;;;;;;;;;;;;;;2100980;28;19912;-86
2024/01/23 07:32:33;;;;;;;;;;;;;;;;;;2096892;28;19916;-82
2024/01/23 07:33:53;;;;;;;;;;;;;;;;;;2093995;28;19915;-84
2024/01/23 07:35:14;;;;;;;;;;;;;;;;;;2096637;28;20462;-84
2024/01/23 07:36:35;;;;;;;;;;;;;;;;;;2096916;28;20327;-83
2024/01/23 07:37:56;;;;;;;;;;;;;;;;;;2087155;28;19913;-85
2024/01/23 07:39:16;;;;;;;;;;;;;;;;;;2093999;28;19916;-84
2024/01/23 07:40:37;;;;;;;;;;;;;;;;;;2090457;28;20258;-86
2024/01/23 07:41:58;;;;;;;;;;;;;;;;;;2086331;28;19924;-85
2024/01/23 07:43:18;;;;;;;;;;;;;;;;;;2096953;28;19920;-83
2024/01/23 07:44:39;;;;;;;;;;;;;;;;;;2104266;28;20299;-85
2024/01/23 07:46:01;;;;;;;;;;;;;;;;;;2094843;28;19912;-85
2024/01/23 07:47:21;;;;;;;;;;;;;;;;;;2085811;28;19909;-84
2024/01/23 07:48:42;;;;;;;;;;;;;;;;;;2101550;28;19908;-86
2024/01/23 07:50:03;;;;;;;;;;;;;;;;;;2096597;28;19939;-84
2024/01/23 07:51:24;;;;;;;;;;;;;;;;;;2095094;28;19908;-86
2024/01/23 07:52:44;;;;;;;;;;;;;;;;;;2086727;28;19929;-78
2024/01/23 07:54:05;;;;;;;;;;;;;;;;;;2085773;28;19909;-84
2024/01/23 07:55:26;;;;;;;;;;;;;;;;;;2095823;28;19908;-82
2024/01/23 07:56:47;;;;;;;;;;;;;;;;;;2092798;28;19917;-86
2024/01/23 07:58:08;;;;;;;;;;;;;;;;;;2091674;28;19908;-83
2024/01/23 07:59:29;;;;;;;;;;;;;;;;;;2093319;28;19998;-84
2024/01/23 08:00:50;;;;;;;;;;;;;;;;;;2091239;28;19916;-87
2024/01/23 08:02:10;;;;;;;;;;;;;;;;;;2092590;28;19917;-86
2024/01/23 08:03:31;;;;;;;;;;;;;;;;;;2095933;28;19913;-86
2024/01/23 08:04:52;;;;;;;;;;;;;;;;;;2097834;28;19908;-86
2024/01/23 08:06:13;;;;;;;;;;;;;;;;;;2093605;28;19916;-84
2024/01/23 08:07:33;;;;;;;;;;;;;;;;;;2093582;28;19939;-85
2024/01/23 08:08:54;;;;;;;;;;;;;;;;;;2087852;28;19908;-86
2024/01/23 08:10:15;;;;;;;;;;;;;;;;;;2094133;28;19924;-86
2024/01/23 08:11:36;;;;;;;;;;;;;;;;;;2097043;28;19909;-84
2024/01/23 08:12:57;;;;;;;;;;;;;;;;;;2101983;28;20288;-86
2024/01/23 08:14:17;;;;;;;;;;;;;;;;;;2095881;28;19916;-84
2024/01/23 08:15:38;;;;;;;;;;;;;;;;;;2103344;28;19915;-86
2024/01/23 08:16:59;;;;;;;;;;;;;;;;;;2089945;28;19913;-83
2024/01/23 08:18:19;;;;;;;;;;;;;;;;;;2088081;28;19908;-85
2024/01/23 08:19:40;;;;;;;;;;;;;;;;;;2101929;28;19915;-83
2024/01/23 08:21:01;;;;;;;;;;;;;;;;;;2095538;28;20022;-85
2024/01/23 08:22:21;;;;;;;;;;;;;;;;;;2096686;28;19924;-86
2024/01/23 08:23:42;;;;;;;;;;;;;;;;;;2096382;28;19979;-86
2024/01/23 08:25:03;;;;;;;;;;;;;;;;;;2104124;28;19908;-88
2024/01/23 08:26:23;;;;;;;;;;;;;;;;;;2104387;28;19908;-84
2024/01/23 08:27:44;;;;;;;;;;;;;;;;;;2099933;28;19909;-86
2024/01/23 08:29:05;;;;;;;;;;;;;;;;;;2093013;28;19909;-87
2024/01/23 08:30:26;;;;;;;;;;;;;;;;;;2094002;28;19955;-83
2024/01/23 08:31:46;;;;;;;;;;;;;;;;;;2102752;28;20462;-85
2024/01/23 08:33:08;;;;;;;;;;;;;;;;;;2089980;28;20082;-85
2024/01/23 08:34:28;;;;;;;;;;;;;;;;;;2094936;28;19908;-86
2024/01/23 08:35:49;;;;;;;;;;;;;;;;;;2096732;28;19919;-86
2024/01/23 08:37:10;;;;;;;;;;;;;;;;;;2099496;28;20003;-86
2024/01/23 08:38:30;;;;;;;;;;;;;;;;;;2089214;28;19909;-87
2024/01/23 08:39:51;;;;;;;;;;;;;;;;;;2101202;28;19912;-84
2024/01/23 08:41:12;;;;;;;;;;;;;;;;;;2105493;28;19908;-87
2024/01/23 08:42:32;;;;;;;;;;;;;;;;;;2103970;28;19912;-87
2024/01/23 08:43:53;;;;;;;;;;;;;;;;;;2105814;28;19908;-83
2024/01/23 08:45:14;;;;;;;;;;;;;;;;;;2098605;28;19908;-87
2024/01/23 08:46:35;;;;;;;;;;;;;;;;;;2089813;28;20429;-85
2024/01/23 08:47:55;;;;;;;;;;;;;;;;;;2096727;28;19920;-85
2024/01/23 08:49:16;;;;;;;;;;;;;;;;;;2103264;28;19931;-85
2024/01/23 08:50:37;;;;;;;;;;;;;;;;;;2106016;28;19912;-85
2024/01/23 08:51:58;;;;;;;;;;;;;;;;;;2089099;28;19909;-84
2024/01/23 08:53:19;;;;;;;;;;;;;;;;;;2099877;28;19923;-85
2024/01/23 08:54:40;;;;;;;;;;;;;;;;;;2096875;28;19909;-86
2024/01/23 08:56:00;;;;;;;;;;;;;;;;;;2089706;28;19909;-85
2024/01/23 08:57:23;;;;;;;;;;;;;;;;;;2093847;28;19916;-86
2024/01/23 08:58:44;;;;;;;;;;;;;;;;;;2086562;28;20040;-83
2024/01/23 09:00:04;;;;;;;;;;;;;;;;;;2094754;28;19962;-84
2024/01/23 09:01:25;;;;;;;;;;;;;;;;;;2096074;28;19909;-87
2024/01/23 09:02:46;;;;;;;;;;;;;;;;;;2099059;28;19912;-84
2024/01/23 09:04:06;;;;;;;;;;;;;;;;;;2101496;28;19943;-86
2024/01/23 09:05:27;;;;;;;;;;;;;;;;;;2106365;28;20295;-85
2024/01/23 09:06:48;;;;;;;;;;;;;;;;;;2090605;28;19916;-84
2024/01/23 09:08:09;;;;;;;;;;;;;;;;;;2095139;28;19962;-86
2024/01/23 09:09:29;;;;;;;;;;;;;;;;;;2090498;28;19919;-87
2024/01/23 09:10:50;;;;;;;;;;;;;;;;;;2099905;28;19920;-86
2024/01/23 09:12:11;;;;;;;;;;;;;;;;;;2098678;28;19950;-84